createdAt,value
2018-03-24T00:07:37.976Z,5.60
2018-03-24T00:10:05.504Z,6.35
2018-03-24T00:12:33.020Z,6.57
2018-03-24T00:15:00.573Z,7.93
2018-03-24T00:17:33.250Z,7.37
2018-03-24T00:20:05.767Z,9.65
2018-03-24T00:22:37.490Z,8.60
2018-03-24T00:25:04.965Z,8.73
2018-03-24T00:27:32.438Z,7.32
2018-03-24T00:29:59.945Z,10.15
2018-03-24T00:32:27.415Z,8.88
2018-03-24T00:34:55.309Z,10.60
2018-03-24T00:37:23.131Z,11.85
2018-03-24T00:39:50.876Z,11.77
2018-03-24T00:42:18.372Z,11.95
2018-03-24T00:44:45.847Z,9.40
2018-03-24T00:47:13.343Z,13.10
2018-03-24T00:49:40.823Z,11.40
2018-03-24T00:52:10.444Z,6.85
2018-03-24T00:54:39.544Z,9.60
2018-03-24T00:57:07.111Z,8.80
2018-03-24T00:59:34.592Z,12.25
2018-03-24T01:02:02.104Z,11.70
2018-03-24T01:04:29.600Z,11.38
2018-03-24T01:06:57.096Z,8.52
2018-03-24T01:09:26.414Z,9.48
2018-03-24T01:11:54.867Z,9.70
2018-03-24T01:14:25.565Z,12.30
2018-03-24T01:16:53.028Z,10.77
2018-03-24T01:19:20.513Z,7.07
2018-03-24T01:21:47.987Z,8.07
2018-03-24T01:24:15.481Z,8.50
2018-03-24T01:26:43.003Z,9.57
2018-03-24T01:29:11.349Z,10.80
2018-03-24T01:31:39.078Z,8.38
2018-03-24T01:34:06.563Z,9.15
2018-03-24T01:36:34.068Z,11.98
2018-03-24T01:39:01.560Z,9.00
2018-03-24T01:41:29.061Z,9.75
2018-03-24T01:43:57.759Z,8.85
2018-03-24T01:46:26.878Z,7.50
2018-03-24T01:48:55.099Z,10.10
2018-03-24T01:51:22.592Z,5.62
2018-03-24T01:53:53.831Z,8.52
2018-03-24T01:56:21.323Z,9.55
2018-03-24T01:58:48.798Z,8.05
2018-03-24T02:01:18.388Z,10.88
2018-03-24T02:03:46.727Z,8.60
2018-03-24T02:06:15.359Z,7.05
2018-03-24T02:08:42.847Z,8.88
2018-03-24T02:11:10.307Z,7.70
2018-03-24T02:13:37.816Z,10.88
2018-03-24T02:16:05.320Z,8.18
2018-03-24T02:18:35.163Z,6.80
2018-03-24T02:21:14.608Z,6.35
2018-03-24T02:23:43.335Z,6.80
2018-03-24T02:26:10.848Z,5.90
2018-03-24T02:28:38.337Z,5.78
2018-03-24T02:31:05.855Z,8.63
2018-03-24T02:33:33.331Z,5.97
2018-03-24T02:36:03.397Z,7.35
2018-03-24T02:38:31.388Z,8.05
2018-03-24T02:40:59.061Z,6.20
2018-03-24T02:43:26.557Z,5.05
2018-03-24T02:45:54.061Z,7.80
2018-03-24T02:48:21.547Z,4.22
2018-03-24T02:50:49.025Z,5.87
2018-03-24T02:53:18.308Z,4.93
2018-03-24T02:55:49.692Z,7.12
2018-03-24T02:58:17.664Z,5.45
2018-03-24T03:00:47.649Z,7.53
2018-03-24T03:03:16.289Z,5.68
2018-03-24T03:05:43.757Z,4.53
2018-03-24T03:08:11.250Z,5.47
2018-03-24T03:10:41.289Z,5.95
2018-03-24T03:13:11.187Z,6.70
2018-03-24T03:15:38.932Z,7.07
2018-03-24T03:18:07.397Z,6.85
2018-03-24T03:20:34.885Z,6.37
2018-03-24T03:23:02.385Z,7.28
2018-03-24T03:25:29.859Z,7.00
2018-03-24T03:28:02.319Z,6.87
2018-03-24T03:30:38.477Z,7.32
2018-03-24T03:33:07.292Z,5.25
2018-03-24T03:35:35.800Z,6.57
2018-03-24T03:38:03.318Z,7.40
2018-03-24T03:40:30.793Z,8.07
2018-03-24T03:42:58.264Z,5.85
2018-03-24T03:45:26.750Z,7.82
2018-03-24T03:47:55.055Z,9.30
2018-03-24T03:50:25.608Z,6.87
2018-03-24T03:52:53.075Z,11.07
2018-03-24T03:55:21.442Z,11.40
2018-03-24T03:57:48.913Z,12.88
2018-03-24T04:00:16.425Z,12.70
2018-03-24T04:02:45.644Z,14.98
2018-03-24T04:05:18.335Z,15.00
2018-03-24T04:07:50.213Z,12.77
2018-03-24T04:10:18.595Z,16.80
2018-03-24T04:12:46.071Z,15.82
2018-03-24T04:15:13.580Z,13.02
2018-03-24T04:17:41.061Z,11.57
2018-03-24T04:20:10.348Z,16.15
2018-03-24T04:22:41.792Z,15.50
2018-03-24T04:25:10.915Z,15.40
2018-03-24T04:27:39.024Z,17.23
2018-03-24T04:30:06.516Z,17.83
2018-03-24T04:32:34.000Z,22.40
2018-03-24T04:35:01.501Z,18.60
2018-03-24T04:37:31.395Z,20.58
2018-03-24T04:39:59.328Z,15.00
2018-03-24T04:42:29.543Z,17.37
2018-03-24T04:44:59.519Z,14.32
2018-03-24T04:47:27.045Z,18.33
2018-03-24T04:49:54.528Z,14.63
2018-03-24T04:52:22.007Z,13.57
2018-03-24T04:54:54.533Z,12.37
2018-03-24T04:57:23.480Z,13.00
2018-03-24T04:59:51.200Z,16.52
2018-03-24T05:02:21.523Z,9.55
2018-03-24T05:04:49.016Z,12.35
2018-03-24T05:07:16.491Z,11.88
2018-03-24T05:09:44.031Z,11.15
2018-03-24T05:12:11.556Z,10.27
2018-03-24T05:14:39.076Z,10.55
2018-03-24T05:17:11.325Z,7.75
2018-03-24T05:19:39.449Z,9.43
2018-03-24T05:22:06.968Z,7.78
2018-03-24T05:24:34.447Z,9.10
2018-03-24T05:27:01.952Z,8.93
2018-03-24T05:29:33.935Z,9.60
2018-03-24T05:32:05.900Z,7.43
2018-03-24T05:34:35.732Z,8.30
2018-03-24T05:37:06.252Z,6.82
2018-03-24T05:39:33.748Z,6.32
2018-03-24T05:42:01.269Z,6.57
2018-03-24T05:44:28.786Z,7.43
2018-03-24T05:46:58.124Z,6.28
2018-03-24T05:49:31.076Z,4.78
2018-03-24T05:51:59.048Z,4.60
2018-03-24T05:54:27.570Z,7.20
2018-03-24T05:56:55.062Z,4.78
2018-03-24T05:59:22.536Z,7.32
2018-03-24T06:01:50.037Z,5.70
2018-03-24T06:04:22.573Z,5.20
2018-03-24T06:06:51.580Z,4.00
2018-03-24T06:09:19.100Z,6.72
2018-03-24T06:11:49.872Z,2.70
2018-03-24T06:14:17.332Z,4.18
2018-03-24T06:16:44.817Z,4.55
2018-03-24T06:19:12.290Z,3.92
2018-03-24T06:21:41.511Z,3.08
2018-03-24T06:24:11.362Z,3.90
2018-03-24T06:26:39.447Z,3.95
2018-03-24T06:29:09.515Z,3.17
2018-03-24T06:31:42.577Z,3.95
2018-03-24T06:34:10.123Z,4.20
2018-03-24T06:36:37.624Z,3.35
2018-03-24T06:39:07.547Z,3.72
2018-03-24T06:41:35.184Z,4.72
2018-03-24T06:44:05.614Z,4.30
2018-03-24T06:46:35.500Z,4.90
2018-03-24T06:49:02.968Z,5.37
2018-03-24T06:54:04.424Z,5.22
2018-03-24T06:56:35.005Z,5.40
2018-03-24T06:59:03.605Z,3.97
2018-03-24T07:01:31.104Z,5.25
2018-03-24T07:03:59.756Z,6.12
2018-03-24T07:06:30.053Z,5.30
2018-03-24T07:08:57.545Z,6.07
2018-03-24T07:11:25.032Z,5.12
2018-03-24T07:13:54.719Z,7.90
2018-03-24T07:16:23.255Z,5.65
2018-03-24T07:18:54.757Z,5.95
2018-03-24T07:21:22.258Z,7.80
2018-03-24T07:23:49.747Z,4.50
2018-03-24T07:26:17.221Z,6.00
2018-03-24T07:28:44.728Z,4.55
2018-03-24T07:31:14.036Z,9.02
2018-03-24T07:33:46.048Z,5.37
2018-03-24T07:36:18.256Z,5.53
2018-03-24T07:38:45.752Z,5.35
2018-03-24T07:41:13.245Z,6.60
2018-03-24T07:43:40.976Z,6.10
2018-03-24T07:46:08.449Z,5.43
2018-03-24T07:48:39.570Z,7.25
2018-03-24T07:51:07.759Z,6.53
2018-03-24T07:53:44.979Z,9.15
2018-03-24T07:56:12.439Z,7.82
2018-03-24T07:58:39.992Z,7.10
2018-03-24T08:01:07.518Z,6.93
2018-03-24T08:03:35.064Z,8.40
2018-03-24T08:08:42.321Z,8.50
2018-03-24T08:11:09.881Z,6.65
2018-03-24T08:13:37.380Z,6.47
2018-03-24T08:16:04.912Z,7.72
2018-03-24T08:18:32.445Z,9.27
2018-03-24T08:20:59.972Z,8.15
2018-03-24T08:23:27.580Z,9.07
2018-03-24T08:29:03.992Z,6.47
2018-03-24T08:31:31.475Z,9.07
2018-03-24T08:33:59.000Z,7.50
2018-03-24T08:36:26.499Z,8.85
2018-03-24T08:38:53.981Z,7.70
2018-03-24T08:50:10.285Z,9.02
2018-03-24T08:52:37.760Z,5.85
2018-03-24T08:55:05.257Z,8.85
2018-03-24T09:05:34.931Z,5.93
2018-03-24T09:08:02.470Z,6.90
2018-03-24T09:10:29.981Z,5.43
2018-03-24T09:12:57.568Z,10.90
2018-03-24T09:23:32.412Z,7.05
2018-03-24T09:25:59.948Z,9.35
2018-03-24T09:28:27.455Z,5.82
2018-03-24T09:30:55.011Z,7.18
2018-03-24T09:33:22.561Z,8.00
2018-03-24T09:35:50.114Z,5.47
2018-03-24T09:38:17.731Z,7.80
2018-03-24T09:40:45.274Z,7.95
2018-03-24T09:43:12.774Z,6.47
2018-03-24T09:45:40.277Z,9.43
2018-03-24T09:50:59.564Z,6.97
2018-03-24T09:53:27.120Z,6.87
2018-03-24T09:59:17.280Z,8.53
2018-03-24T10:01:44.789Z,6.67
2018-03-24T10:04:12.281Z,6.37
2018-03-24T10:09:25.289Z,4.93
2018-03-24T10:14:55.407Z,4.80
2018-03-24T10:17:22.954Z,3.80
2018-03-24T10:19:50.544Z,3.90
2018-03-24T10:31:32.699Z,7.17
2018-03-24T10:34:02.151Z,7.03
2018-03-24T10:36:29.696Z,7.30
2018-03-24T10:38:57.267Z,3.70
2018-03-24T10:50:34.041Z,5.20
2018-03-24T10:53:01.597Z,3.63
2018-03-24T10:55:29.207Z,6.43
2018-03-24T11:07:05.473Z,5.33
2018-03-24T11:09:33.151Z,7.50
2018-03-24T11:12:00.726Z,6.83
2018-03-24T11:23:36.947Z,5.60
2018-03-24T11:26:04.539Z,9.80
2018-03-24T11:28:32.148Z,5.13
2018-03-24T11:40:08.633Z,8.63
2018-03-24T11:42:36.209Z,8.07
2018-03-24T11:45:03.778Z,8.20
2018-03-24T11:56:45.756Z,11.27
2018-03-24T11:59:13.466Z,10.23
2018-03-24T12:01:41.013Z,10.77
2018-03-24T12:04:08.545Z,8.37
2018-03-24T12:15:44.785Z,8.10
2018-03-24T12:18:12.362Z,7.37
2018-03-24T12:20:39.948Z,7.37
2018-03-24T12:32:15.901Z,9.50
2018-03-24T12:34:43.413Z,7.43
2018-03-24T12:37:11.002Z,10.57
2018-03-24T12:48:47.186Z,10.13
2018-03-24T12:51:14.740Z,9.77
2018-03-24T12:53:42.300Z,9.23
2018-03-24T13:05:18.645Z,11.67
2018-03-24T13:07:46.201Z,12.83
2018-03-24T13:10:13.851Z,12.60
2018-03-24T13:12:41.450Z,9.80
2018-03-24T13:24:17.567Z,12.20
2018-03-24T13:26:45.121Z,10.90
2018-03-24T13:29:12.678Z,9.53
2018-03-24T13:40:48.937Z,14.70
2018-03-24T13:43:16.535Z,13.43
2018-03-24T13:45:44.100Z,13.10
2018-03-24T13:57:20.605Z,14.30
2018-03-24T13:59:48.171Z,13.40
2018-03-24T14:02:15.725Z,14.93
2018-03-24T14:13:51.836Z,14.73
2018-03-24T14:16:20.377Z,12.43
2018-03-24T14:18:47.898Z,15.53
2018-03-24T14:21:15.447Z,16.70
2018-03-24T14:30:23.254Z,12.67
2018-03-24T14:32:50.802Z,14.93
2018-03-24T14:35:18.413Z,14.20
2018-03-24T14:37:45.977Z,11.00
2018-03-24T14:49:22.796Z,16.03
2018-03-24T14:51:50.360Z,12.73
2018-03-24T14:54:17.913Z,12.27
2018-03-24T15:05:54.589Z,15.13
2018-03-24T15:08:22.117Z,13.43
2018-03-24T15:10:49.677Z,15.13
2018-03-24T15:22:25.869Z,16.40
2018-03-24T15:24:53.424Z,15.20
2018-03-24T15:27:20.993Z,21.43
2018-03-24T15:38:47.441Z,14.97
2018-03-24T15:41:14.976Z,15.27
2018-03-24T15:43:43.069Z,12.33
2018-03-24T15:46:10.616Z,14.17
2018-03-24T15:57:46.973Z,13.27
2018-03-24T16:00:14.513Z,11.90
2018-03-24T16:02:42.093Z,13.90
2018-03-24T16:14:17.937Z,15.33
2018-03-24T16:16:45.481Z,12.57
2018-03-24T16:19:13.033Z,10.23
2018-03-24T16:30:49.893Z,16.90
2018-03-24T16:33:17.473Z,13.00
2018-03-24T16:35:45.200Z,11.67
2018-03-24T16:47:21.359Z,21.57
2018-03-24T16:49:49.005Z,10.70
2018-03-24T16:52:16.548Z,12.13
2018-03-24T17:04:02.227Z,14.43
2018-03-24T17:06:31.020Z,10.57
2018-03-24T17:08:59.057Z,12.20
2018-03-24T17:23:34.675Z,16.90
2018-03-24T17:26:02.285Z,12.43
2018-03-24T17:28:33.696Z,12.80
2018-03-24T17:40:10.188Z,13.00
2018-03-24T17:42:37.774Z,10.93
2018-03-24T17:45:05.473Z,6.67
2018-03-24T17:56:41.469Z,7.97
2018-03-24T17:59:16.379Z,10.10
2018-03-24T18:01:44.003Z,15.00
2018-03-24T18:13:19.666Z,9.10
2018-03-24T18:15:47.225Z,11.43
2018-03-24T18:18:14.920Z,9.90
2018-03-24T18:20:42.468Z,8.77
2018-03-24T18:23:20.861Z,9.83
2018-03-24T18:25:51.213Z,14.75
2018-03-24T18:28:30.104Z,12.03
2018-03-24T18:30:57.660Z,15.87
2018-03-24T18:33:25.168Z,18.00
2018-03-24T18:35:52.656Z,14.53
2018-03-24T18:38:26.085Z,18.00
2018-03-24T18:40:55.424Z,17.27
2018-03-24T18:48:49.100Z,14.73
2018-03-24T18:51:16.611Z,15.00
2018-03-24T18:53:44.098Z,11.23
2018-03-24T18:56:11.603Z,11.90
2018-03-24T19:06:27.249Z,14.20
2018-03-24T19:08:54.756Z,15.90
2018-03-24T19:11:22.244Z,11.83
2018-03-24T19:13:58.557Z,11.63
2018-03-24T19:24:26.688Z,15.33
2018-03-24T19:26:54.211Z,20.23
2018-03-24T19:29:21.772Z,18.53
2018-03-24T19:31:51.696Z,18.07
2018-03-24T19:34:19.934Z,18.83
2018-03-24T19:36:47.727Z,18.37
2018-03-24T19:39:15.196Z,12.27
2018-03-24T19:41:42.685Z,16.37
2018-03-24T19:44:10.159Z,16.90
2018-03-24T19:46:37.693Z,19.42
2018-03-24T19:49:06.427Z,22.27
2018-03-24T19:51:38.690Z,20.43
2018-03-24T19:54:07.211Z,18.67
2018-03-24T19:56:35.548Z,15.53
2018-03-24T19:59:03.056Z,20.10
2018-03-24T20:01:30.529Z,19.63
2018-03-24T20:03:58.031Z,18.83
2018-03-24T20:06:27.813Z,16.60
2018-03-24T20:08:55.785Z,14.55
2018-03-24T20:11:26.080Z,14.67
2018-03-24T20:13:56.077Z,16.23
2018-03-24T20:16:23.599Z,16.20
2018-03-24T20:18:51.072Z,13.63
2018-03-24T20:21:18.576Z,13.45
2018-03-24T20:23:46.850Z,14.13
2018-03-24T20:26:15.249Z,13.43
2018-03-24T20:28:43.559Z,11.57
2018-03-24T20:31:12.134Z,13.17
2018-03-24T20:33:41.048Z,13.77
2018-03-24T20:36:08.532Z,21.40
2018-03-24T20:38:36.024Z,10.47
2018-03-24T20:41:03.508Z,17.37
2018-03-24T20:43:31.411Z,13.68
2018-03-24T20:46:00.038Z,15.77
2018-03-24T20:48:27.556Z,18.10
2018-03-24T20:50:55.035Z,15.40
2018-03-24T20:53:22.508Z,16.23
2018-03-24T20:55:50.004Z,16.67
2018-03-24T20:58:20.045Z,15.70
2018-03-24T21:00:47.581Z,16.40
2018-03-24T21:03:15.805Z,15.15
2018-03-24T21:05:43.440Z,16.40
2018-03-24T21:08:10.944Z,16.37
2018-03-24T21:10:38.464Z,16.67
2018-03-24T21:13:05.963Z,15.73
2018-03-24T21:15:38.249Z,17.30
2018-03-24T21:18:06.986Z,14.60
2018-03-24T21:20:36.146Z,15.70
2018-03-24T21:23:09.775Z,15.32
2018-03-24T21:25:37.279Z,17.17
2018-03-24T21:28:04.767Z,15.70
2018-03-24T21:30:32.275Z,17.92
2018-03-24T21:32:59.782Z,14.60
2018-03-24T21:35:28.059Z,15.70
2018-03-24T21:37:58.052Z,17.92
2018-03-24T21:40:28.046Z,16.40
2018-03-24T21:42:55.544Z,17.27
2018-03-24T21:45:23.075Z,15.20
2018-03-24T21:47:50.556Z,17.90
2018-03-24T21:50:22.781Z,18.90
2018-03-24T21:52:54.267Z,17.90
2018-03-24T21:55:23.368Z,18.37
2018-03-24T21:57:51.956Z,17.95
2018-03-24T22:00:19.448Z,16.58
2018-03-24T22:02:46.944Z,13.23
2018-03-24T22:05:14.434Z,18.27
2018-03-24T22:07:46.965Z,16.10
2018-03-24T22:10:15.626Z,18.65
2018-03-24T22:12:47.037Z,16.20
2018-03-24T22:15:18.003Z,13.35
2018-03-24T22:17:45.508Z,13.25
2018-03-24T22:20:13.016Z,14.98
2018-03-24T22:22:40.528Z,14.07
2018-03-24T22:25:08.012Z,10.95
2018-03-24T22:27:35.506Z,14.30
2018-03-24T22:30:06.010Z,12.77
2018-03-24T22:32:36.065Z,14.68
2018-03-24T22:35:03.556Z,10.55
2018-03-24T22:37:31.038Z,14.10
2018-03-24T22:39:58.542Z,12.48
2018-03-24T22:42:30.390Z,13.48
2018-03-24T22:45:02.284Z,13.75
2018-03-24T22:47:30.832Z,13.57
2018-03-24T22:50:03.076Z,17.20
2018-03-24T22:52:30.575Z,13.98
2018-03-24T22:54:58.077Z,16.52
2018-03-24T22:57:25.614Z,13.85
2018-03-24T22:59:55.088Z,10.93
2018-03-24T23:02:26.002Z,11.23
2018-03-24T23:04:56.041Z,11.75
2018-03-24T23:07:23.554Z,9.02
2018-03-24T23:09:51.038Z,12.85
2018-03-24T23:12:18.544Z,12.18
2018-03-24T23:14:46.024Z,12.00
2018-03-24T23:17:15.937Z,10.85
2018-03-24T23:19:43.736Z,10.43
2018-03-24T23:22:14.160Z,12.20
2018-03-24T23:24:44.057Z,11.18
2018-03-24T23:27:11.560Z,12.77
2018-03-24T23:29:39.078Z,12.47
2018-03-24T23:32:06.567Z,10.80
2018-03-24T23:34:34.924Z,8.90
2018-03-24T23:37:06.736Z,9.95
2018-03-24T23:39:36.008Z,10.00
2018-03-24T23:42:04.077Z,12.30
2018-03-24T23:44:31.556Z,12.93
2018-03-24T23:46:59.048Z,9.13
2018-03-24T23:49:26.527Z,14.68
2018-03-24T23:51:54.620Z,13.07
2018-03-24T23:54:26.807Z,12.23
2018-03-24T23:56:55.318Z,10.60
2018-03-24T23:59:23.868Z,11.93
